sensor_id;sensor_type;location;lat;lon;timestamp;pressure;altitude;pressure_sealevel;temperature;humidity
51687;BME280;37774;52.192;4.584;2023-05-03T00:01:37;103142.25;;;3.72;100.00
51687;BME280;37774;52.192;4.584;2023-05-03T00:04:22;103127.09;;;3.77;100.00
51687;BME280;37774;52.192;4.584;2023-05-03T00:07:07;103122.56;;;3.58;100.00
51687;BME280;37774;52.192;4.584;2023-05-03T00:09:53;103124.16;;;3.56;100.00
51687;BME280;37774;52.192;4.584;2023-05-03T00:12:39;103119.63;;;3.51;100.00
51687;BME280;37774;52.192;4.584;2023-05-03T00:15:24;103110.75;;;3.31;100.00
51687;BME280;37774;52.192;4.584;2023-05-03T00:18:11;103120.59;;;3.39;100.00
51687;BME280;37774;52.192;4.584;2023-05-03T00:20:57;102873.13;;;1.91;100.00
51687;BME280;37774;52.192;4.584;2023-05-03T00:23:42;103080.91;;;3.33;100.00
51687;BME280;37774;52.192;4.584;2023-05-03T00:26:28;103110.88;;;3.48;100.00
51687;BME280;37774;52.192;4.584;2023-05-03T00:29:13;103106.69;;;3.35;100.00
51687;BME280;37774;52.192;4.584;2023-05-03T00:31:58;103095.97;;;3.27;100.00
51687;BME280;37774;52.192;4.584;2023-05-03T00:34:46;103095.78;;;3.24;100.00
51687;BME280;37774;52.192;4.584;2023-05-03T00:37:32;103092.78;;;3.31;100.00
51687;BME280;37774;52.192;4.584;2023-05-03T00:40:17;103087.09;;;3.37;100.00
51687;BME280;37774;52.192;4.584;2023-05-03T00:43:02;103063.41;;;3.13;100.00
51687;BME280;37774;52.192;4.584;2023-05-03T00:45:48;103092.38;;;3.10;100.00
51687;BME280;37774;52.192;4.584;2023-05-03T00:48:34;103092.94;;;3.19;100.00
51687;BME280;37774;52.192;4.584;2023-05-03T00:51:22;103081.69;;;3.32;100.00
51687;BME280;37774;52.192;4.584;2023-05-03T00:54:08;103091.44;;;3.23;100.00
51687;BME280;37774;52.192;4.584;2023-05-03T00:56:54;103083.97;;;3.28;100.00
51687;BME280;37774;52.192;4.584;2023-05-03T00:59:40;103087.97;;;3.22;100.00
51687;BME280;37774;52.192;4.584;2023-05-03T01:02:26;103090.78;;;3.12;100.00
51687;BME280;37774;52.192;4.584;2023-05-03T01:05:12;103060.91;;;2.99;100.00
51687;BME280;37774;52.192;4.584;2023-05-03T01:08:03;102962.53;;;2.57;100.00
51687;BME280;37774;52.192;4.584;2023-05-03T01:10:57;103084.09;;;3.29;100.00
51687;BME280;37774;52.192;4.584;2023-05-03T01:13:52;103080.50;;;3.12;100.00
51687;BME280;37774;52.192;4.584;2023-05-03T01:16:42;103071.22;;;3.14;100.00
51687;BME280;37774;52.192;4.584;2023-05-03T01:19:33;103080.69;;;3.15;100.00
51687;BME280;37774;52.192;4.584;2023-05-03T01:22:26;103065.09;;;3.12;100.00
51687;BME280;37774;52.192;4.584;2023-05-03T01:25:17;103059.34;;;3.16;100.00
51687;BME280;37774;52.192;4.584;2023-05-03T01:28:03;103059.53;;;3.19;100.00
51687;BME280;37774;52.192;4.584;2023-05-03T01:30:49;103060.56;;;3.08;100.00
51687;BME280;37774;52.192;4.584;2023-05-03T01:33:43;103058.34;;;2.99;100.00
51687;BME280;37774;52.192;4.584;2023-05-03T01:36:30;103029.81;;;2.95;100.00
51687;BME280;37774;52.192;4.584;2023-05-03T01:39:23;103042.13;;;3.00;100.00
51687;BME280;37774;52.192;4.584;2023-05-03T01:42:12;103044.50;;;2.97;100.00
51687;BME280;37774;52.192;4.584;2023-05-03T01:44:59;103023.97;;;2.97;100.00
51687;BME280;37774;52.192;4.584;2023-05-03T01:47:46;103018.34;;;2.74;100.00
51687;BME280;37774;52.192;4.584;2023-05-03T01:50:32;103006.06;;;2.69;100.00
51687;BME280;37774;52.192;4.584;2023-05-03T01:53:17;102846.00;;;1.81;100.00
51687;BME280;37774;52.192;4.584;2023-05-03T01:56:03;102968.56;;;2.57;100.00
51687;BME280;37774;52.192;4.584;2023-05-03T01:58:50;102898.47;;;2.15;100.00
51687;BME280;37774;52.192;4.584;2023-05-03T02:01:35;102968.78;;;2.47;100.00
51687;BME280;37774;52.192;4.584;2023-05-03T02:04:21;102948.06;;;2.44;100.00
51687;BME280;37774;52.192;4.584;2023-05-03T02:07:06;102957.28;;;2.40;100.00
51687;BME280;37774;52.192;4.584;2023-05-03T02:09:52;102940.13;;;2.54;100.00
51687;BME280;37774;52.192;4.584;2023-05-03T02:12:37;102935.34;;;2.45;100.00
51687;BME280;37774;52.192;4.584;2023-05-03T02:15:24;102922.06;;;2.38;100.00
51687;BME280;37774;52.192;4.584;2023-05-03T02:18:10;102897.31;;;2.10;100.00
51687;BME280;37774;52.192;4.584;2023-05-03T02:20:55;102862.25;;;1.95;100.00
51687;BME280;37774;52.192;4.584;2023-05-03T02:23:41;102942.44;;;2.50;100.00
51687;BME280;37774;52.192;4.584;2023-05-03T02:26:26;102936.41;;;2.34;100.00
51687;BME280;37774;52.192;4.584;2023-05-03T02:29:12;102961.88;;;2.46;100.00
51687;BME280;37774;52.192;4.584;2023-05-03T02:31:59;102961.03;;;2.45;100.00
51687;BME280;37774;52.192;4.584;2023-05-03T02:34:45;102971.78;;;2.40;100.00
51687;BME280;37774;52.192;4.584;2023-05-03T02:37:31;102888.50;;;1.91;100.00
51687;BME280;37774;52.192;4.584;2023-05-03T02:40:17;102903.78;;;2.18;100.00
51687;BME280;37774;52.192;4.584;2023-05-03T02:43:03;102956.97;;;2.64;100.00
51687;BME280;37774;52.192;4.584;2023-05-03T02:45:48;102969.97;;;2.52;100.00
51687;BME280;37774;52.192;4.584;2023-05-03T02:48:35;102958.91;;;2.53;100.00
51687;BME280;37774;52.192;4.584;2023-05-03T02:51:20;102940.66;;;2.48;100.00
51687;BME280;37774;52.192;4.584;2023-05-03T02:54:06;102948.56;;;2.52;100.00
51687;BME280;37774;52.192;4.584;2023-05-03T02:56:51;102957.84;;;2.50;100.00
51687;BME280;37774;52.192;4.584;2023-05-03T02:59:37;102965.25;;;2.45;100.00
51687;BME280;37774;52.192;4.584;2023-05-03T03:02:22;102970.13;;;2.40;100.00
51687;BME280;37774;52.192;4.584;2023-05-03T03:05:09;102973.19;;;2.34;100.00
51687;BME280;37774;52.192;4.584;2023-05-03T03:07:54;102973.19;;;2.34;100.00
51687;BME280;37774;52.192;4.584;2023-05-03T03:10:40;102973.75;;;2.44;100.00
51687;BME280;37774;52.192;4.584;2023-05-03T03:13:25;102971.97;;;2.43;100.00
51687;BME280;37774;52.192;4.584;2023-05-03T03:16:11;102979.84;;;2.46;100.00
51687;BME280;37774;52.192;4.584;2023-05-03T03:18:57;102893.94;;;1.82;100.00
51687;BME280;37774;52.192;4.584;2023-05-03T03:21:43;102991.25;;;2.36;100.00
51687;BME280;37774;52.192;4.584;2023-05-03T03:24:29;102972.19;;;2.17;100.00
51687;BME280;37774;52.192;4.584;2023-05-03T03:27:14;102973.44;;;2.24;100.00
51687;BME280;37774;52.192;4.584;2023-05-03T03:30:00;102976.78;;;2.23;100.00
51687;BME280;37774;52.192;4.584;2023-05-03T03:32:45;102975.81;;;2.21;100.00
51687;BME280;37774;52.192;4.584;2023-05-03T03:35:31;102952.50;;;1.89;100.00
51687;BME280;37774;52.192;4.584;2023-05-03T03:38:18;102965.63;;;1.94;100.00
51687;BME280;37774;52.192;4.584;2023-05-03T03:41:04;102978.53;;;1.82;100.00
51687;BME280;37774;52.192;4.584;2023-05-03T03:43:49;102976.84;;;1.96;100.00
51687;BME280;37774;52.192;4.584;2023-05-03T03:46:35;102971.00;;;1.99;100.00
51687;BME280;37774;52.192;4.584;2023-05-03T03:49:20;102965.59;;;2.08;100.00
51687;BME280;37774;52.192;4.584;2023-05-03T03:52:06;102965.88;;;2.12;100.00
51687;BME280;37774;52.192;4.584;2023-05-03T03:54:53;102922.50;;;1.88;100.00
51687;BME280;37774;52.192;4.584;2023-05-03T03:57:38;102969.50;;;2.16;100.00
51687;BME280;37774;52.192;4.584;2023-05-03T04:00:23;102968.72;;;2.17;100.00
51687;BME280;37774;52.192;4.584;2023-05-03T04:03:09;102978.09;;;2.03;100.00
51687;BME280;37774;52.192;4.584;2023-05-03T04:05:54;102988.84;;;2.11;100.00
51687;BME280;37774;52.192;4.584;2023-05-03T04:08:40;102990.94;;;2.03;100.00
51687;BME280;37774;52.192;4.584;2023-05-03T04:11:26;102989.47;;;2.07;100.00
51687;BME280;37774;52.192;4.584;2023-05-03T04:14:11;102939.81;;;1.78;100.00
51687;BME280;37774;52.192;4.584;2023-05-03T04:16:57;102996.59;;;1.97;100.00
51687;BME280;37774;52.192;4.584;2023-05-03T04:19:42;102994.59;;;2.07;100.00
51687;BME280;37774;52.192;4.584;2023-05-03T04:22:27;103005.06;;;1.96;100.00
51687;BME280;37774;52.192;4.584;2023-05-03T04:25:14;102990.25;;;2.06;100.00
51687;BME280;37774;52.192;4.584;2023-05-03T04:28:01;102991.41;;;2.11;100.00
51687;BME280;37774;52.192;4.584;2023-05-03T04:30:47;102966.63;;;1.83;100.00
51687;BME280;37774;52.192;4.584;2023-05-03T04:33:32;102981.38;;;2.00;100.00
51687;BME280;37774;52.192;4.584;2023-05-03T04:36:18;102983.00;;;1.85;100.00
51687;BME280;37774;52.192;4.584;2023-05-03T04:39:08;102976.44;;;2.03;100.00
51687;BME280;37774;52.192;4.584;2023-05-03T04:41:54;102972.38;;;2.07;100.00
51687;BME280;37774;52.192;4.584;2023-05-03T04:44:41;102961.72;;;2.14;100.00
51687;BME280;37774;52.192;4.584;2023-05-03T04:47:27;102967.31;;;2.22;100.00
51687;BME280;37774;52.192;4.584;2023-05-03T04:50:12;102967.25;;;2.36;100.00
51687;BME280;37774;52.192;4.584;2023-05-03T04:52:58;102898.19;;;1.82;100.00
51687;BME280;37774;52.192;4.584;2023-05-03T04:55:43;102923.28;;;2.01;100.00
51687;BME280;37774;52.192;4.584;2023-05-03T04:58:30;102904.38;;;1.85;100.00
51687;BME280;37774;52.192;4.584;2023-05-03T05:01:17;102963.78;;;2.20;100.00
51687;BME280;37774;52.192;4.584;2023-05-03T05:04:02;102967.44;;;2.10;100.00
51687;BME280;37774;52.192;4.584;2023-05-03T05:06:49;102962.91;;;2.19;100.00
51687;BME280;37774;52.192;4.584;2023-05-03T05:09:35;102959.00;;;2.26;100.00
51687;BME280;37774;52.192;4.584;2023-05-03T05:12:21;102941.47;;;2.19;100.00
51687;BME280;37774;52.192;4.584;2023-05-03T05:15:07;102947.53;;;2.34;100.00
51687;BME280;37774;52.192;4.584;2023-05-03T05:17:54;102935.44;;;2.47;100.00
51687;BME280;37774;52.192;4.584;2023-05-03T05:20:39;102948.94;;;2.73;100.00
51687;BME280;37774;52.192;4.584;2023-05-03T05:23:25;102949.47;;;2.82;100.00
51687;BME280;37774;52.192;4.584;2023-05-03T05:26:10;102949.56;;;2.84;100.00
51687;BME280;37774;52.192;4.584;2023-05-03T05:28:56;102964.25;;;3.01;100.00
51687;BME280;37774;52.192;4.584;2023-05-03T05:31:41;102969.56;;;3.04;100.00
51687;BME280;37774;52.192;4.584;2023-05-03T05:34:28;102661.25;;;1.63;100.00
51687;BME280;37774;52.192;4.584;2023-05-03T05:37:14;102965.97;;;3.62;100.00
51687;BME280;37774;52.192;4.584;2023-05-03T05:39:59;102930.31;;;3.69;100.00
51687;BME280;37774;52.192;4.584;2023-05-03T05:42:45;102965.75;;;4.22;100.00
51687;BME280;37774;52.192;4.584;2023-05-03T05:45:31;102913.72;;;4.12;100.00
51687;BME280;37774;52.192;4.584;2023-05-03T05:48:17;102963.41;;;4.60;100.00
51687;BME280;37774;52.192;4.584;2023-05-03T05:51:04;102971.44;;;4.83;100.00
51687;BME280;37774;52.192;4.584;2023-05-03T05:53:50;102910.28;;;4.62;100.00
51687;BME280;37774;52.192;4.584;2023-05-03T05:56:35;102928.56;;;5.02;100.00
51687;BME280;37774;52.192;4.584;2023-05-03T05:59:21;102974.16;;;5.57;100.00
51687;BME280;37774;52.192;4.584;2023-05-03T06:02:14;102944.94;;;5.76;100.00
51687;BME280;37774;52.192;4.584;2023-05-03T06:05:00;102963.50;;;6.05;100.00
51687;BME280;37774;52.192;4.584;2023-05-03T06:07:48;102966.38;;;6.11;100.00
51687;BME280;37774;52.192;4.584;2023-05-03T06:10:34;102996.03;;;6.21;100.00
51687;BME280;37774;52.192;4.584;2023-05-03T06:13:20;103013.38;;;6.24;100.00
51687;BME280;37774;52.192;4.584;2023-05-03T06:16:06;103019.78;;;6.32;100.00
51687;BME280;37774;52.192;4.584;2023-05-03T06:18:51;103039.75;;;6.36;100.00
51687;BME280;37774;52.192;4.584;2023-05-03T06:21:36;103043.31;;;6.38;100.00
51687;BME280;37774;52.192;4.584;2023-05-03T06:24:23;103054.72;;;6.63;100.00
51687;BME280;37774;52.192;4.584;2023-05-03T06:27:15;103055.22;;;6.74;100.00
51687;BME280;37774;52.192;4.584;2023-05-03T06:30:00;103022.38;;;6.52;100.00
51687;BME280;37774;52.192;4.584;2023-05-03T06:32:46;102975.28;;;6.38;100.00
51687;BME280;37774;52.192;4.584;2023-05-03T06:35:31;103057.31;;;6.63;100.00
51687;BME280;37774;52.192;4.584;2023-05-03T06:38:17;103052.63;;;6.74;100.00
51687;BME280;37774;52.192;4.584;2023-05-03T06:41:04;103025.50;;;6.64;100.00
51687;BME280;37774;52.192;4.584;2023-05-03T06:43:49;103024.81;;;6.68;100.00
51687;BME280;37774;52.192;4.584;2023-05-03T06:46:35;102788.91;;;5.29;100.00
51687;BME280;37774;52.192;4.584;2023-05-03T06:49:21;102976.13;;;6.58;100.00
51687;BME280;37774;52.192;4.584;2023-05-03T06:52:06;103034.84;;;6.82;100.00
51687;BME280;37774;52.192;4.584;2023-05-03T06:54:52;103052.66;;;7.15;100.00
51687;BME280;37774;52.192;4.584;2023-05-03T06:57:40;103019.00;;;6.94;100.00
51687;BME280;37774;52.192;4.584;2023-05-03T07:00:26;103075.63;;;7.28;100.00
51687;BME280;37774;52.192;4.584;2023-05-03T07:03:11;103045.72;;;7.14;100.00
51687;BME280;37774;52.192;4.584;2023-05-03T07:05:56;103052.06;;;7.01;100.00
51687;BME280;37774;52.192;4.584;2023-05-03T07:08:42;103077.78;;;7.39;100.00
51687;BME280;37774;52.192;4.584;2023-05-03T07:11:27;103039.66;;;7.35;100.00
51687;BME280;37774;52.192;4.584;2023-05-03T07:14:14;103071.84;;;7.63;100.00
51687;BME280;37774;52.192;4.584;2023-05-03T07:17:00;103061.47;;;7.84;100.00
51687;BME280;37774;52.192;4.584;2023-05-03T07:19:45;103057.78;;;8.00;100.00
51687;BME280;37774;52.192;4.584;2023-05-03T07:22:31;103061.72;;;8.13;100.00
51687;BME280;37774;52.192;4.584;2023-05-03T07:25:16;103069.81;;;8.45;100.00
51687;BME280;37774;52.192;4.584;2023-05-03T07:28:01;103070.16;;;8.77;100.00
51687;BME280;37774;52.192;4.584;2023-05-03T07:30:48;103065.91;;;9.29;100.00
51687;BME280;37774;52.192;4.584;2023-05-03T07:33:33;103070.72;;;9.18;100.00
51687;BME280;37774;52.192;4.584;2023-05-03T07:36:20;103069.66;;;9.13;100.00
51687;BME280;37774;52.192;4.584;2023-05-03T07:39:05;103068.75;;;9.64;100.00
51687;BME280;37774;52.192;4.584;2023-05-03T07:41:50;103063.66;;;9.68;100.00
51687;BME280;37774;52.192;4.584;2023-05-03T07:44:35;103057.47;;;9.91;100.00
51687;BME280;37774;52.192;4.584;2023-05-03T07:47:21;103052.19;;;10.17;100.00
51687;BME280;37774;52.192;4.584;2023-05-03T07:50:07;103070.84;;;10.33;100.00
51687;BME280;37774;52.192;4.584;2023-05-03T07:52:52;103078.50;;;10.28;100.00
51687;BME280;37774;52.192;4.584;2023-05-03T07:55:39;103073.09;;;10.51;100.00
51687;BME280;37774;52.192;4.584;2023-05-03T07:58:24;103076.78;;;10.90;100.00
51687;BME280;37774;52.192;4.584;2023-05-03T08:01:09;103078.69;;;10.63;100.00
51687;BME280;37774;52.192;4.584;2023-05-03T08:03:55;103077.63;;;10.58;100.00
51687;BME280;37774;52.192;4.584;2023-05-03T08:06:40;103080.59;;;11.03;100.00
51687;BME280;37774;52.192;4.584;2023-05-03T08:09:25;103076.69;;;11.55;100.00
51687;BME280;37774;52.192;4.584;2023-05-03T08:12:10;103081.84;;;11.17;100.00
51687;BME280;37774;52.192;4.584;2023-05-03T08:14:55;103087.09;;;11.91;100.00
51687;BME280;37774;52.192;4.584;2023-05-03T08:17:40;103078.00;;;12.51;100.00
51687;BME280;37774;52.192;4.584;2023-05-03T08:20:27;103089.84;;;11.98;100.00
51687;BME280;37774;52.192;4.584;2023-05-03T08:23:13;103086.16;;;12.25;100.00
51687;BME280;37774;52.192;4.584;2023-05-03T08:25:59;103089.41;;;13.03;100.00
51687;BME280;37774;52.192;4.584;2023-05-03T08:28:47;103087.03;;;12.26;100.00
51687;BME280;37774;52.192;4.584;2023-05-03T08:31:32;103074.41;;;12.46;100.00
51687;BME280;37774;52.192;4.584;2023-05-03T08:34:18;103089.66;;;11.89;100.00
51687;BME280;37774;52.192;4.584;2023-05-03T08:37:04;103094.66;;;12.18;100.00
51687;BME280;37774;52.192;4.584;2023-05-03T08:39:50;103087.31;;;12.84;100.00
51687;BME280;37774;52.192;4.584;2023-05-03T08:42:37;103090.72;;;12.80;100.00
51687;BME280;37774;52.192;4.584;2023-05-03T08:45:22;103084.66;;;13.29;100.00
51687;BME280;37774;52.192;4.584;2023-05-03T08:48:07;103073.75;;;12.58;100.00
51687;BME280;37774;52.192;4.584;2023-05-03T08:50:52;103084.19;;;13.03;100.00
51687;BME280;37774;52.192;4.584;2023-05-03T08:53:41;103088.22;;;13.34;100.00
51687;BME280;37774;52.192;4.584;2023-05-03T08:56:27;103082.88;;;12.79;100.00
51687;BME280;37774;52.192;4.584;2023-05-03T08:59:13;103087.63;;;12.55;100.00
51687;BME280;37774;52.192;4.584;2023-05-03T09:01:59;103090.56;;;13.20;100.00
51687;BME280;37774;52.192;4.584;2023-05-03T09:04:44;103080.59;;;13.47;100.00
51687;BME280;37774;52.192;4.584;2023-05-03T09:07:30;103086.91;;;13.10;100.00
51687;BME280;37774;52.192;4.584;2023-05-03T09:10:22;103086.63;;;13.99;100.00
51687;BME280;37774;52.192;4.584;2023-05-03T09:13:08;103085.22;;;13.63;100.00
51687;BME280;37774;52.192;4.584;2023-05-03T09:15:55;103082.50;;;13.57;100.00
51687;BME280;37774;52.192;4.584;2023-05-03T09:18:40;103072.88;;;14.16;100.00
51687;BME280;37774;52.192;4.584;2023-05-03T09:21:27;103074.88;;;14.34;100.00
51687;BME280;37774;52.192;4.584;2023-05-03T09:24:14;103071.78;;;13.98;100.00
51687;BME280;37774;52.192;4.584;2023-05-03T09:27:01;103075.63;;;13.62;100.00
51687;BME280;37774;52.192;4.584;2023-05-03T09:30:15;103082.06;;;14.54;100.00
51687;BME280;37774;52.192;4.584;2023-05-03T09:33:00;103075.50;;;14.14;100.00
51687;BME280;37774;52.192;4.584;2023-05-03T09:35:54;103070.97;;;14.72;100.00
51687;BME280;37774;52.192;4.584;2023-05-03T09:38:39;103077.59;;;14.42;100.00
51687;BME280;37774;52.192;4.584;2023-05-03T09:41:27;103070.03;;;14.67;100.00
51687;BME280;37774;52.192;4.584;2023-05-03T09:44:15;103079.09;;;14.23;100.00
51687;BME280;37774;52.192;4.584;2023-05-03T09:47:01;103080.13;;;15.14;100.00
51687;BME280;37774;52.192;4.584;2023-05-03T09:49:47;103082.69;;;15.07;100.00
51687;BME280;37774;52.192;4.584;2023-05-03T09:52:32;103084.25;;;15.97;100.00
51687;BME280;37774;52.192;4.584;2023-05-03T09:55:17;103087.75;;;14.93;100.00
51687;BME280;37774;52.192;4.584;2023-05-03T09:58:04;103088.66;;;14.95;100.00
51687;BME280;37774;52.192;4.584;2023-05-03T10:00:52;103084.75;;;15.48;100.00
51687;BME280;37774;52.192;4.584;2023-05-03T10:03:38;103079.06;;;16.10;100.00
51687;BME280;37774;52.192;4.584;2023-05-03T10:06:24;103085.75;;;15.64;100.00
51687;BME280;37774;52.192;4.584;2023-05-03T10:09:11;103090.06;;;15.54;100.00
51687;BME280;37774;52.192;4.584;2023-05-03T10:11:59;103082.78;;;15.19;100.00
51687;BME280;37774;52.192;4.584;2023-05-03T10:14:46;103070.63;;;15.29;100.00
51687;BME280;37774;52.192;4.584;2023-05-03T10:17:33;103068.56;;;14.89;100.00
51687;BME280;37774;52.192;4.584;2023-05-03T10:20:20;103062.94;;;15.47;100.00
51687;BME280;37774;52.192;4.584;2023-05-03T10:23:09;103058.16;;;16.25;100.00
51687;BME280;37774;52.192;4.584;2023-05-03T10:26:13;103073.13;;;16.59;100.00
51687;BME280;37774;52.192;4.584;2023-05-03T10:28:59;103080.13;;;16.46;100.00
51687;BME280;37774;52.192;4.584;2023-05-03T10:31:45;103075.56;;;16.11;100.00
51687;BME280;37774;52.192;4.584;2023-05-03T10:34:32;103078.19;;;16.03;100.00
51687;BME280;37774;52.192;4.584;2023-05-03T10:37:17;103078.44;;;16.73;100.00
51687;BME280;37774;52.192;4.584;2023-05-03T10:40:06;103074.94;;;16.77;100.00
51687;BME280;37774;52.192;4.584;2023-05-03T10:42:53;103073.13;;;16.48;100.00
51687;BME280;37774;52.192;4.584;2023-05-03T10:45:38;103076.06;;;15.52;100.00
51687;BME280;37774;52.192;4.584;2023-05-03T10:48:24;103091.28;;;16.00;100.00
51687;BME280;37774;52.192;4.584;2023-05-03T10:51:30;103086.09;;;16.20;100.00
51687;BME280;37774;52.192;4.584;2023-05-03T10:54:19;103103.72;;;16.50;100.00
51687;BME280;37774;52.192;4.584;2023-05-03T10:57:04;103091.50;;;16.48;100.00
51687;BME280;37774;52.192;4.584;2023-05-03T10:59:50;103073.94;;;16.41;100.00
51687;BME280;37774;52.192;4.584;2023-05-03T11:02:36;103073.19;;;16.77;100.00
51687;BME280;37774;52.192;4.584;2023-05-03T11:05:24;103058.38;;;17.09;100.00
51687;BME280;37774;52.192;4.584;2023-05-03T11:08:13;103040.00;;;17.20;100.00
51687;BME280;37774;52.192;4.584;2023-05-03T11:11:00;103031.25;;;17.02;100.00
51687;BME280;37774;52.192;4.584;2023-05-03T11:13:45;103023.28;;;16.51;100.00
51687;BME280;37774;52.192;4.584;2023-05-03T11:16:30;103025.97;;;17.19;100.00
51687;BME280;37774;52.192;4.584;2023-05-03T11:19:15;103014.41;;;17.98;100.00
51687;BME280;37774;52.192;4.584;2023-05-03T11:22:00;103011.91;;;17.53;100.00
51687;BME280;37774;52.192;4.584;2023-05-03T11:24:47;102997.72;;;18.15;100.00
51687;BME280;37774;52.192;4.584;2023-05-03T11:27:33;102976.84;;;17.57;100.00
51687;BME280;37774;52.192;4.584;2023-05-03T11:30:18;102959.25;;;17.83;100.00
51687;BME280;37774;52.192;4.584;2023-05-03T11:33:04;102949.59;;;17.81;100.00
51687;BME280;37774;52.192;4.584;2023-05-03T11:35:53;102947.34;;;18.69;100.00
51687;BME280;37774;52.192;4.584;2023-05-03T11:38:38;102932.22;;;17.40;100.00
51687;BME280;37774;52.192;4.584;2023-05-03T11:41:25;102926.97;;;17.31;100.00
51687;BME280;37774;52.192;4.584;2023-05-03T11:44:10;102932.00;;;18.07;100.00
51687;BME280;37774;52.192;4.584;2023-05-03T11:46:56;102926.47;;;18.43;100.00
51687;BME280;37774;52.192;4.584;2023-05-03T11:49:49;102915.97;;;18.39;100.00
51687;BME280;37774;52.192;4.584;2023-05-03T11:52:35;102907.69;;;17.35;100.00
51687;BME280;37774;52.192;4.584;2023-05-03T11:55:21;102898.91;;;17.50;100.00
51687;BME280;37774;52.192;4.584;2023-05-03T11:58:08;102895.47;;;17.31;100.00
51687;BME280;37774;52.192;4.584;2023-05-03T12:00:56;102907.75;;;16.90;100.00
51687;BME280;37774;52.192;4.584;2023-05-03T12:03:41;102900.75;;;17.12;100.00
51687;BME280;37774;52.192;4.584;2023-05-03T12:06:26;102898.97;;;17.30;100.00
51687;BME280;37774;52.192;4.584;2023-05-03T12:09:12;102905.69;;;17.96;100.00
51687;BME280;37774;52.192;4.584;2023-05-03T12:11:58;102891.03;;;17.39;100.00
51687;BME280;37774;52.192;4.584;2023-05-03T12:14:57;102888.16;;;17.95;100.00
51687;BME280;37774;52.192;4.584;2023-05-03T12:17:43;102891.97;;;17.29;100.00
51687;BME280;37774;52.192;4.584;2023-05-03T12:20:28;102875.34;;;17.25;100.00
51687;BME280;37774;52.192;4.584;2023-05-03T12:23:14;102874.38;;;17.43;100.00
51687;BME280;37774;52.192;4.584;2023-05-03T12:26:00;102878.75;;;17.44;100.00
51687;BME280;37774;52.192;4.584;2023-05-03T12:28:46;102880.66;;;16.75;100.00
51687;BME280;37774;52.192;4.584;2023-05-03T12:31:32;102877.81;;;17.67;100.00
51687;BME280;37774;52.192;4.584;2023-05-03T12:34:17;102876.13;;;17.49;100.00
51687;BME280;37774;52.192;4.584;2023-05-03T12:37:03;102864.00;;;17.17;100.00
51687;BME280;37774;52.192;4.584;2023-05-03T12:39:48;102862.13;;;17.39;100.00
51687;BME280;37774;52.192;4.584;2023-05-03T12:42:34;102865.63;;;17.50;100.00
51687;BME280;37774;52.192;4.584;2023-05-03T12:45:19;102760.75;;;16.74;100.00
51687;BME280;37774;52.192;4.584;2023-05-03T12:48:06;102857.31;;;18.25;100.00
51687;BME280;37774;52.192;4.584;2023-05-03T12:50:51;102844.53;;;17.66;100.00
51687;BME280;37774;52.192;4.584;2023-05-03T12:53:37;102842.63;;;17.85;100.00
51687;BME280;37774;52.192;4.584;2023-05-03T12:56:22;102856.59;;;17.96;100.00
51687;BME280;37774;52.192;4.584;2023-05-03T12:59:07;102847.72;;;18.19;100.00
51687;BME280;37774;52.192;4.584;2023-05-03T13:01:53;102829.94;;;18.46;100.00
51687;BME280;37774;52.192;4.584;2023-05-03T13:04:39;102830.22;;;18.15;100.00
51687;BME280;37774;52.192;4.584;2023-05-03T13:07:24;102845.56;;;17.18;100.00
51687;BME280;37774;52.192;4.584;2023-05-03T13:10:10;102843.09;;;18.46;100.00
51687;BME280;37774;52.192;4.584;2023-05-03T13:12:55;102827.78;;;17.75;100.00
51687;BME280;37774;52.192;4.584;2023-05-03T13:15:41;102804.69;;;18.22;100.00
51687;BME280;37774;52.192;4.584;2023-05-03T13:18:27;102821.78;;;17.49;100.00
51687;BME280;37774;52.192;4.584;2023-05-03T13:21:13;102831.13;;;18.06;100.00
51687;BME280;37774;52.192;4.584;2023-05-03T13:23:58;102804.25;;;18.72;100.00
51687;BME280;37774;52.192;4.584;2023-05-03T13:26:43;102803.28;;;17.71;100.00
51687;BME280;37774;52.192;4.584;2023-05-03T13:29:29;102802.03;;;18.25;100.00
51687;BME280;37774;52.192;4.584;2023-05-03T13:32:14;102808.84;;;17.06;100.00
51687;BME280;37774;52.192;4.584;2023-05-03T13:34:59;102795.50;;;17.49;100.00
51687;BME280;37774;52.192;4.584;2023-05-03T13:37:46;102796.16;;;17.87;100.00
51687;BME280;37774;52.192;4.584;2023-05-03T13:40:31;102793.94;;;17.19;100.00
51687;BME280;37774;52.192;4.584;2023-05-03T13:43:16;102806.00;;;17.59;100.00
51687;BME280;37774;52.192;4.584;2023-05-03T13:46:01;102779.59;;;17.76;100.00
51687;BME280;37774;52.192;4.584;2023-05-03T13:48:46;102784.97;;;17.54;100.00
51687;BME280;37774;52.192;4.584;2023-05-03T13:51:31;102778.91;;;17.41;100.00
51687;BME280;37774;52.192;4.584;2023-05-03T13:54:18;102769.44;;;17.06;100.00
51687;BME280;37774;52.192;4.584;2023-05-03T13:57:03;102757.28;;;16.71;100.00
51687;BME280;37774;52.192;4.584;2023-05-03T13:59:49;102764.88;;;17.42;100.00
51687;BME280;37774;52.192;4.584;2023-05-03T14:02:34;102751.09;;;16.89;100.00
51687;BME280;37774;52.192;4.584;2023-05-03T14:05:19;102762.50;;;16.78;100.00
51687;BME280;37774;52.192;4.584;2023-05-03T14:08:04;102758.94;;;16.97;100.00
51687;BME280;37774;52.192;4.584;2023-05-03T14:10:50;102757.16;;;17.14;100.00
51687;BME280;37774;52.192;4.584;2023-05-03T14:13:36;102743.22;;;17.00;100.00
51687;BME280;37774;52.192;4.584;2023-05-03T14:16:21;102745.91;;;16.73;100.00
51687;BME280;37774;52.192;4.584;2023-05-03T14:19:07;102744.19;;;16.58;100.00
51687;BME280;37774;52.192;4.584;2023-05-03T14:21:54;102737.97;;;17.00;100.00
51687;BME280;37774;52.192;4.584;2023-05-03T14:24:41;102727.34;;;17.26;100.00